sensor_id;sensor_type;location;lat;lon;timestamp;temperature;humidity
23713;DHT22;12035;49.978;8.298;2022-08-25T00:00:05;29.20;29.40
23713;DHT22;12035;49.978;8.298;2022-08-25T00:05:03;29.10;29.50
23713;DHT22;12035;49.978;8.298;2022-08-25T00:10:01;29.10;29.60
23713;DHT22;12035;49.978;8.298;2022-08-25T00:14:58;29.00;29.70
23713;DHT22;12035;49.978;8.298;2022-08-25T00:19:56;29.00;29.80
23713;DHT22;12035;49.978;8.298;2022-08-25T00:24:54;28.90;30.00
23713;DHT22;12035;49.978;8.298;2022-08-25T00:29:51;28.80;30.20
23713;DHT22;12035;49.978;8.298;2022-08-25T00:34:48;28.60;30.60
23713;DHT22;12035;49.978;8.298;2022-08-25T00:39:46;28.50;30.70
23713;DHT22;12035;49.978;8.298;2022-08-25T00:44:43;28.30;31.10
23713;DHT22;12035;49.978;8.298;2022-08-25T00:49:45;28.20;31.40
23713;DHT22;12035;49.978;8.298;2022-08-25T00:54:48;28.10;31.70
23713;DHT22;12035;49.978;8.298;2022-08-25T00:59:47;28.00;32.00
23713;DHT22;12035;49.978;8.298;2022-08-25T01:04:45;27.90;32.20
23713;DHT22;12035;49.978;8.298;2022-08-25T01:09:43;27.90;32.40
23713;DHT22;12035;49.978;8.298;2022-08-25T01:14:43;27.90;32.50
23713;DHT22;12035;49.978;8.298;2022-08-25T01:19:44;27.90;32.70
23713;DHT22;12035;49.978;8.298;2022-08-25T01:24:51;27.90;32.90
23713;DHT22;12035;49.978;8.298;2022-08-25T01:29:53;27.90;33.10
23713;DHT22;12035;49.978;8.298;2022-08-25T01:34:50;27.90;33.10
23713;DHT22;12035;49.978;8.298;2022-08-25T01:39:49;27.90;33.80
23713;DHT22;12035;49.978;8.298;2022-08-25T01:44:46;27.80;34.00
23713;DHT22;12035;49.978;8.298;2022-08-25T01:49:44;27.80;34.60
23713;DHT22;12035;49.978;8.298;2022-08-25T01:54:41;27.60;34.80
23713;DHT22;12035;49.978;8.298;2022-08-25T01:59:40;27.50;35.30
23713;DHT22;12035;49.978;8.298;2022-08-25T02:04:37;27.40;35.50
23713;DHT22;12035;49.978;8.298;2022-08-25T02:09:35;27.30;35.80
23713;DHT22;12035;49.978;8.298;2022-08-25T02:14:34;27.30;36.00
23713;DHT22;12035;49.978;8.298;2022-08-25T02:19:32;27.20;35.90
23713;DHT22;12035;49.978;8.298;2022-08-25T02:24:29;27.20;35.90
23713;DHT22;12035;49.978;8.298;2022-08-25T02:29:26;27.30;35.80
23713;DHT22;12035;49.978;8.298;2022-08-25T02:34:23;27.30;35.70
23713;DHT22;12035;49.978;8.298;2022-08-25T02:39:22;27.40;35.70
23713;DHT22;12035;49.978;8.298;2022-08-25T02:44:19;27.50;35.90
23713;DHT22;12035;49.978;8.298;2022-08-25T02:49:16;27.60;35.80
23713;DHT22;12035;49.978;8.298;2022-08-25T02:54:13;27.60;36.00
23713;DHT22;12035;49.978;8.298;2022-08-25T02:59:12;27.60;36.30
23713;DHT22;12035;49.978;8.298;2022-08-25T03:04:09;27.60;36.20
23713;DHT22;12035;49.978;8.298;2022-08-25T03:09:06;27.60;36.30
23713;DHT22;12035;49.978;8.298;2022-08-25T03:14:04;27.60;36.20
23713;DHT22;12035;49.978;8.298;2022-08-25T03:19:02;27.60;36.20
23713;DHT22;12035;49.978;8.298;2022-08-25T03:23:59;27.60;36.30
23713;DHT22;12035;49.978;8.298;2022-08-25T03:28:57;27.60;36.30
23713;DHT22;12035;49.978;8.298;2022-08-25T03:33:54;27.60;36.50
23713;DHT22;12035;49.978;8.298;2022-08-25T03:38:53;27.50;36.70
23713;DHT22;12035;49.978;8.298;2022-08-25T03:43:50;27.30;37.50
23713;DHT22;12035;49.978;8.298;2022-08-25T03:48:48;27.10;37.50
23713;DHT22;12035;49.978;8.298;2022-08-25T03:53:45;27.00;37.70
23713;DHT22;12035;49.978;8.298;2022-08-25T03:58:44;26.90;37.80
23713;DHT22;12035;49.978;8.298;2022-08-25T04:03:42;26.80;38.30
23713;DHT22;12035;49.978;8.298;2022-08-25T04:08:39;26.70;39.10
23713;DHT22;12035;49.978;8.298;2022-08-25T04:13:36;26.60;38.70
23713;DHT22;12035;49.978;8.298;2022-08-25T04:18:35;26.50;38.70
23713;DHT22;12035;49.978;8.298;2022-08-25T04:23:32;26.50;38.80
23713;DHT22;12035;49.978;8.298;2022-08-25T04:28:30;26.50;39.00
23713;DHT22;12035;49.978;8.298;2022-08-25T04:33:27;26.40;39.40
23713;DHT22;12035;49.978;8.298;2022-08-25T04:38:25;26.30;39.60
23713;DHT22;12035;49.978;8.298;2022-08-25T04:43:22;26.20;39.90
23713;DHT22;12035;49.978;8.298;2022-08-25T04:48:20;26.10;40.00
23713;DHT22;12035;49.978;8.298;2022-08-25T04:53:17;26.00;40.10
23713;DHT22;12035;49.978;8.298;2022-08-25T04:58:17;25.90;40.50
23713;DHT22;12035;49.978;8.298;2022-08-25T05:03:14;26.00;40.90
23713;DHT22;12035;49.978;8.298;2022-08-25T05:08:11;26.30;41.00
23713;DHT22;12035;49.978;8.298;2022-08-25T05:13:08;26.70;40.90
23713;DHT22;12035;49.978;8.298;2022-08-25T05:18:07;27.10;40.60
23713;DHT22;12035;49.978;8.298;2022-08-25T05:23:05;27.60;40.10
23713;DHT22;12035;49.978;8.298;2022-08-25T05:28:02;28.10;39.80
23713;DHT22;12035;49.978;8.298;2022-08-25T05:33:00;28.70;39.30
23713;DHT22;12035;49.978;8.298;2022-08-25T05:37:59;29.30;38.70
23713;DHT22;12035;49.978;8.298;2022-08-25T05:42:56;29.80;37.90
23713;DHT22;12035;49.978;8.298;2022-08-25T05:47:53;30.40;37.20
23713;DHT22;12035;49.978;8.298;2022-08-25T05:52:50;31.00;36.90
23713;DHT22;12035;49.978;8.298;2022-08-25T05:57:48;31.60;36.20
23713;DHT22;12035;49.978;8.298;2022-08-25T06:02:46;32.20;35.40
23713;DHT22;12035;49.978;8.298;2022-08-25T06:07:44;32.60;34.60
23713;DHT22;12035;49.978;8.298;2022-08-25T06:12:43;33.20;34.00
23713;DHT22;12035;49.978;8.298;2022-08-25T06:17:42;33.60;33.40
23713;DHT22;12035;49.978;8.298;2022-08-25T06:22:40;34.10;32.60
23713;DHT22;12035;49.978;8.298;2022-08-25T06:27:37;34.50;32.20
23713;DHT22;12035;49.978;8.298;2022-08-25T06:32:36;34.80;31.90
23713;DHT22;12035;49.978;8.298;2022-08-25T06:37:36;35.10;31.20
23713;DHT22;12035;49.978;8.298;2022-08-25T06:42:33;35.30;30.70
23713;DHT22;12035;49.978;8.298;2022-08-25T06:47:30;35.50;30.60
23713;DHT22;12035;49.978;8.298;2022-08-25T06:52:27;35.60;30.40
23713;DHT22;12035;49.978;8.298;2022-08-25T06:57:25;35.70;30.10
23713;DHT22;12035;49.978;8.298;2022-08-25T07:02:23;35.70;30.10
23713;DHT22;12035;49.978;8.298;2022-08-25T07:07:20;35.70;30.00
23713;DHT22;12035;49.978;8.298;2022-08-25T07:12:17;35.80;30.00
23713;DHT22;12035;49.978;8.298;2022-08-25T07:17:16;36.10;30.00
23713;DHT22;12035;49.978;8.298;2022-08-25T07:22:14;36.40;29.80
23713;DHT22;12035;49.978;8.298;2022-08-25T07:27:11;36.60;29.50
23713;DHT22;12035;49.978;8.298;2022-08-25T07:32:08;36.70;29.10
23713;DHT22;12035;49.978;8.298;2022-08-25T07:37:07;36.90;29.30
23713;DHT22;12035;49.978;8.298;2022-08-25T07:42:04;37.10;29.10
23713;DHT22;12035;49.978;8.298;2022-08-25T07:47:02;37.30;28.70
23713;DHT22;12035;49.978;8.298;2022-08-25T07:51:59;37.30;28.60
23713;DHT22;12035;49.978;8.298;2022-08-25T07:56:57;37.40;28.70
23713;DHT22;12035;49.978;8.298;2022-08-25T08:01:54;37.50;28.50
23713;DHT22;12035;49.978;8.298;2022-08-25T08:06:52;37.50;28.50
23713;DHT22;12035;49.978;8.298;2022-08-25T08:11:49;37.50;28.50
23713;DHT22;12035;49.978;8.298;2022-08-25T08:16:47;37.30;28.70
23713;DHT22;12035;49.978;8.298;2022-08-25T08:21:45;37.20;28.80
23713;DHT22;12035;49.978;8.298;2022-08-25T08:26:43;37.10;28.80
23713;DHT22;12035;49.978;8.298;2022-08-25T08:31:40;37.20;28.90
23713;DHT22;12035;49.978;8.298;2022-08-25T08:36:38;37.40;28.70
23713;DHT22;12035;49.978;8.298;2022-08-25T08:41:48;37.50;28.60
23713;DHT22;12035;49.978;8.298;2022-08-25T08:47:13;37.60;28.40
23713;DHT22;12035;49.978;8.298;2022-08-25T08:52:18;37.70;28.50
23713;DHT22;12035;49.978;8.298;2022-08-25T08:57:23;37.70;28.40
23713;DHT22;12035;49.978;8.298;2022-08-25T09:02:26;37.60;28.20
23713;DHT22;12035;49.978;8.298;2022-08-25T09:07:32;37.50;28.20
23713;DHT22;12035;49.978;8.298;2022-08-25T09:12:36;37.00;28.30
23713;DHT22;12035;49.978;8.298;2022-08-25T09:18:05;36.80;28.60
23713;DHT22;12035;49.978;8.298;2022-08-25T09:23:16;36.50;29.00
23713;DHT22;12035;49.978;8.298;2022-08-25T09:28:29;36.30;29.10
23713;DHT22;12035;49.978;8.298;2022-08-25T09:33:30;36.30;29.20
23713;DHT22;12035;49.978;8.298;2022-08-25T09:38:30;36.40;28.90
23713;DHT22;12035;49.978;8.298;2022-08-25T09:43:33;36.50;28.80
23713;DHT22;12035;49.978;8.298;2022-08-25T09:48:33;36.40;28.40
23713;DHT22;12035;49.978;8.298;2022-08-25T09:53:33;36.20;28.40
23713;DHT22;12035;49.978;8.298;2022-08-25T09:58:32;36.00;28.70
23713;DHT22;12035;49.978;8.298;2022-08-25T10:03:29;35.70;28.70
23713;DHT22;12035;49.978;8.298;2022-08-25T10:08:33;35.50;29.00
23713;DHT22;12035;49.978;8.298;2022-08-25T10:13:36;35.20;29.00
23713;DHT22;12035;49.978;8.298;2022-08-25T10:18:37;35.10;29.50
23713;DHT22;12035;49.978;8.298;2022-08-25T10:23:39;35.10;29.40
23713;DHT22;12035;49.978;8.298;2022-08-25T10:28:52;35.30;29.20
23713;DHT22;12035;49.978;8.298;2022-08-25T10:34:06;35.40;29.00
23713;DHT22;12035;49.978;8.298;2022-08-25T10:39:24;35.40;29.00
23713;DHT22;12035;49.978;8.298;2022-08-25T10:44:32;35.40;28.50
23713;DHT22;12035;49.978;8.298;2022-08-25T10:49:53;35.50;28.50
23713;DHT22;12035;49.978;8.298;2022-08-25T10:54:57;35.50;28.60
23713;DHT22;12035;49.978;8.298;2022-08-25T11:00:04;35.50;28.70
23713;DHT22;12035;49.978;8.298;2022-08-25T11:05:07;35.40;28.20
23713;DHT22;12035;49.978;8.298;2022-08-25T11:10:10;35.40;28.30
23713;DHT22;12035;49.978;8.298;2022-08-25T11:15:11;35.40;29.10
23713;DHT22;12035;49.978;8.298;2022-08-25T11:20:16;35.50;28.60
23713;DHT22;12035;49.978;8.298;2022-08-25T11:25:20;35.60;28.80
23713;DHT22;12035;49.978;8.298;2022-08-25T11:30:22;35.60;28.50
23713;DHT22;12035;49.978;8.298;2022-08-25T11:35:34;35.60;28.20
23713;DHT22;12035;49.978;8.298;2022-08-25T11:40:50;35.40;27.90
23713;DHT22;12035;49.978;8.298;2022-08-25T11:46:00;35.40;28.30
23713;DHT22;12035;49.978;8.298;2022-08-25T11:51:06;35.40;28.60
23713;DHT22;12035;49.978;8.298;2022-08-25T11:56:08;35.60;28.50
23713;DHT22;12035;49.978;8.298;2022-08-25T12:01:10;35.70;28.40
23713;DHT22;12035;49.978;8.298;2022-08-25T12:06:26;35.80;28.10
23713;DHT22;12035;49.978;8.298;2022-08-25T12:11:46;35.80;28.10
23713;DHT22;12035;49.978;8.298;2022-08-25T12:17:06;35.90;28.10
23713;DHT22;12035;49.978;8.298;2022-08-25T12:22:38;36.00;28.00
23713;DHT22;12035;49.978;8.298;2022-08-25T12:27:54;36.00;27.80
23713;DHT22;12035;49.978;8.298;2022-08-25T12:33:06;36.00;27.80
23713;DHT22;12035;49.978;8.298;2022-08-25T12:38:09;36.10;27.80
23713;DHT22;12035;49.978;8.298;2022-08-25T12:43:12;36.20;27.90
23713;DHT22;12035;49.978;8.298;2022-08-25T12:53:59;36.40;27.60
23713;DHT22;12035;49.978;8.298;2022-08-25T12:59:15;36.40;27.30
23713;DHT22;12035;49.978;8.298;2022-08-25T13:04:29;36.30;27.30
23713;DHT22;12035;49.978;8.298;2022-08-25T13:15:34;36.10;27.50
23713;DHT22;12035;49.978;8.298;2022-08-25T13:20:33;36.20;27.60
23713;DHT22;12035;49.978;8.298;2022-08-25T13:25:30;36.20;27.50
23713;DHT22;12035;49.978;8.298;2022-08-25T13:30:32;36.30;27.40
23713;DHT22;12035;49.978;8.298;2022-08-25T13:35:31;36.30;27.40
23713;DHT22;12035;49.978;8.298;2022-08-25T13:40:29;36.40;27.40
23713;DHT22;12035;49.978;8.298;2022-08-25T13:45:31;36.40;27.40
23713;DHT22;12035;49.978;8.298;2022-08-25T13:50:34;36.30;27.30
23713;DHT22;12035;49.978;8.298;2022-08-25T13:55:35;36.20;28.00
23713;DHT22;12035;49.978;8.298;2022-08-25T14:00:40;36.10;27.50
23713;DHT22;12035;49.978;8.298;2022-08-25T14:05:42;35.90;27.30
23713;DHT22;12035;49.978;8.298;2022-08-25T14:10:42;35.60;27.40
23713;DHT22;12035;49.978;8.298;2022-08-25T14:15:43;35.30;27.30
23713;DHT22;12035;49.978;8.298;2022-08-25T14:20:45;35.20;27.50
23713;DHT22;12035;49.978;8.298;2022-08-25T14:25:45;35.10;27.60
23713;DHT22;12035;49.978;8.298;2022-08-25T14:30:47;35.10;27.50
23713;DHT22;12035;49.978;8.298;2022-08-25T14:35:49;35.20;27.40
23713;DHT22;12035;49.978;8.298;2022-08-25T14:40:47;35.30;27.30
23713;DHT22;12035;49.978;8.298;2022-08-25T14:45:47;35.50;27.20
23713;DHT22;12035;49.978;8.298;2022-08-25T14:50:44;35.50;26.80
23713;DHT22;12035;49.978;8.298;2022-08-25T14:55:42;35.60;26.70
23713;DHT22;12035;49.978;8.298;2022-08-25T15:00:41;35.50;26.90
23713;DHT22;12035;49.978;8.298;2022-08-25T15:05:41;35.60;26.90
23713;DHT22;12035;49.978;8.298;2022-08-25T15:10:39;35.70;27.00
23713;DHT22;12035;49.978;8.298;2022-08-25T15:15:39;35.80;27.10
23713;DHT22;12035;49.978;8.298;2022-08-25T15:20:38;35.80;26.50
23713;DHT22;12035;49.978;8.298;2022-08-25T15:25:37;35.80;26.30
23713;DHT22;12035;49.978;8.298;2022-08-25T15:30:36;35.90;26.50
23713;DHT22;12035;49.978;8.298;2022-08-25T15:35:33;36.00;27.00
23713;DHT22;12035;49.978;8.298;2022-08-25T15:40:31;36.10;26.40
23713;DHT22;12035;49.978;8.298;2022-08-25T15:45:30;36.10;26.30
23713;DHT22;12035;49.978;8.298;2022-08-25T15:50:27;36.10;26.30
23713;DHT22;12035;49.978;8.298;2022-08-25T15:55:24;36.10;26.20
23713;DHT22;12035;49.978;8.298;2022-08-25T16:00:22;36.10;26.20
23713;DHT22;12035;49.978;8.298;2022-08-25T16:05:21;36.00;26.30
23713;DHT22;12035;49.978;8.298;2022-08-25T16:10:18;36.10;26.30
23713;DHT22;12035;49.978;8.298;2022-08-25T16:15:15;36.10;26.50
23713;DHT22;12035;49.978;8.298;2022-08-25T16:20:15;36.10;26.50
23713;DHT22;12035;49.978;8.298;2022-08-25T16:25:14;36.10;26.50
23713;DHT22;12035;49.978;8.298;2022-08-25T16:30:12;36.10;26.60
23713;DHT22;12035;49.978;8.298;2022-08-25T16:35:10;36.10;26.60
23713;DHT22;12035;49.978;8.298;2022-08-25T16:40:08;36.00;26.50
23713;DHT22;12035;49.978;8.298;2022-08-25T16:45:09;35.90;26.40
23713;DHT22;12035;49.978;8.298;2022-08-25T16:50:07;35.70;26.40
23713;DHT22;12035;49.978;8.298;2022-08-25T16:55:06;35.50;26.60
23713;DHT22;12035;49.978;8.298;2022-08-25T17:00:14;35.40;26.70
23713;DHT22;12035;49.978;8.298;2022-08-25T17:05:12;35.30;26.90
23713;DHT22;12035;49.978;8.298;2022-08-25T17:10:10;35.20;27.00
23713;DHT22;12035;49.978;8.298;2022-08-25T17:15:08;35.10;27.20
23713;DHT22;12035;49.978;8.298;2022-08-25T17:20:07;35.00;27.30
23713;DHT22;12035;49.978;8.298;2022-08-25T17:25:06;34.90;27.30
23713;DHT22;12035;49.978;8.298;2022-08-25T17:30:08;34.90;27.40
23713;DHT22;12035;49.978;8.298;2022-08-25T17:35:08;34.80;27.70
23713;DHT22;12035;49.978;8.298;2022-08-25T17:40:06;34.80;27.90
23713;DHT22;12035;49.978;8.298;2022-08-25T17:45:05;34.70;27.80
23713;DHT22;12035;49.978;8.298;2022-08-25T17:50:03;34.50;28.00
23713;DHT22;12035;49.978;8.298;2022-08-25T17:55:02;34.40;28.10
23713;DHT22;12035;49.978;8.298;2022-08-25T18:00:00;34.30;28.10
23713;DHT22;12035;49.978;8.298;2022-08-25T18:05:01;34.20;28.10
23713;DHT22;12035;49.978;8.298;2022-08-25T18:09:59;34.00;28.10
23713;DHT22;12035;49.978;8.298;2022-08-25T18:14:57;33.90;28.20
23713;DHT22;12035;49.978;8.298;2022-08-25T18:19:54;33.80;28.40
23713;DHT22;12035;49.978;8.298;2022-08-25T18:24:52;33.70;28.50
23713;DHT22;12035;49.978;8.298;2022-08-25T18:29:49;33.60;28.50
23713;DHT22;12035;49.978;8.298;2022-08-25T18:34:47;33.60;28.60
23713;DHT22;12035;49.978;8.298;2022-08-25T18:39:45;33.50;28.60
23713;DHT22;12035;49.978;8.298;2022-08-25T18:44:59;33.40;28.60
23713;DHT22;12035;49.978;8.298;2022-08-25T18:49:59;33.40;28.70
23713;DHT22;12035;49.978;8.298;2022-08-25T18:55:06;33.30;28.70
23713;DHT22;12035;49.978;8.298;2022-08-25T19:00:05;33.20;28.80
23713;DHT22;12035;49.978;8.298;2022-08-25T19:05:06;33.20;28.80
23713;DHT22;12035;49.978;8.298;2022-08-25T19:10:04;33.10;29.00
23713;DHT22;12035;49.978;8.298;2022-08-25T19:15:02;33.20;29.10
23713;DHT22;12035;49.978;8.298;2022-08-25T19:20:00;33.20;29.30
23713;DHT22;12035;49.978;8.298;2022-08-25T19:24:59;33.20;29.10
23713;DHT22;12035;49.978;8.298;2022-08-25T19:29:57;33.20;29.20
23713;DHT22;12035;49.978;8.298;2022-08-25T19:34:55;33.20;29.70
23713;DHT22;12035;49.978;8.298;2022-08-25T19:39:53;33.30;29.30
23713;DHT22;12035;49.978;8.298;2022-08-25T19:44:52;33.30;29.40
23713;DHT22;12035;49.978;8.298;2022-08-25T19:49:49;33.20;29.40
23713;DHT22;12035;49.978;8.298;2022-08-25T19:54:53;33.20;29.50
23713;DHT22;12035;49.978;8.298;2022-08-25T19:59:52;33.20;29.50
23713;DHT22;12035;49.978;8.298;2022-08-25T20:04:51;33.10;29.60
23713;DHT22;12035;49.978;8.298;2022-08-25T20:09:50;33.00;29.60
23713;DHT22;12035;49.978;8.298;2022-08-25T20:14:49;33.00;29.70
23713;DHT22;12035;49.978;8.298;2022-08-25T20:19:48;32.90;29.80
23713;DHT22;12035;49.978;8.298;2022-08-25T20:24:45;32.90;29.90
23713;DHT22;12035;49.978;8.298;2022-08-25T20:29:46;32.70;29.90
23713;DHT22;12035;49.978;8.298;2022-08-25T20:34:44;32.70;30.10
23713;DHT22;12035;49.978;8.298;2022-08-25T20:39:43;32.60;30.20
23713;DHT22;12035;49.978;8.298;2022-08-25T20:44:40;32.50;30.40
23713;DHT22;12035;49.978;8.298;2022-08-25T20:49:38;32.40;30.50
23713;DHT22;12035;49.978;8.298;2022-08-25T20:54:35;32.40;30.50
23713;DHT22;12035;49.978;8.298;2022-08-25T20:59:33;32.30;30.60
23713;DHT22;12035;49.978;8.298;2022-08-25T21:04:31;32.30;30.80
23713;DHT22;12035;49.978;8.298;2022-08-25T21:09:28;32.20;30.70
23713;DHT22;12035;49.978;8.298;2022-08-25T21:14:26;32.20;30.90
23713;DHT22;12035;49.978;8.298;2022-08-25T21:19:25;32.10;30.90
23713;DHT22;12035;49.978;8.298;2022-08-25T21:24:22;32.10;31.10
23713;DHT22;12035;49.978;8.298;2022-08-25T21:29:22;32.00;31.00
23713;DHT22;12035;49.978;8.298;2022-08-25T21:34:20;32.00;31.30
23713;DHT22;12035;49.978;8.298;2022-08-25T21:39:19;31.90;31.30
23713;DHT22;12035;49.978;8.298;2022-08-25T21:44:16;31.90;31.50
23713;DHT22;12035;49.978;8.298;2022-08-25T21:49:13;31.80;31.50
23713;DHT22;12035;49.978;8.298;2022-08-25T21:54:12;31.70;31.50
23713;DHT22;12035;49.978;8.298;2022-08-25T21:59:15;31.70;31.90
23713;DHT22;12035;49.978;8.298;2022-08-25T22:04:13;31.60;31.90
23713;DHT22;12035;49.978;8.298;2022-08-25T22:09:12;31.50;32.00
23713;DHT22;12035;49.978;8.298;2022-08-25T22:14:10;31.40;32.10
23713;DHT22;12035;49.978;8.298;2022-08-25T22:19:12;31.40;32.40
23713;DHT22;12035;49.978;8.298;2022-08-25T22:24:09;31.30;32.30
23713;DHT22;12035;49.978;8.298;2022-08-25T22:29:07;31.30;33.00
23713;DHT22;12035;49.978;8.298;2022-08-25T22:34:06;31.30;32.50
23713;DHT22;12035;49.978;8.298;2022-08-25T22:39:05;31.20;32.50
23713;DHT22;12035;49.978;8.298;2022-08-25T22:44:04;31.20;32.70
23713;DHT22;12035;49.978;8.298;2022-08-25T22:49:02;31.20;32.70
23713;DHT22;12035;49.978;8.298;2022-08-25T22:54:00;31.10;32.70
23713;DHT22;12035;49.978;8.298;2022-08-25T22:59:00;31.10;32.70
23713;DHT22;12035;49.978;8.298;2022-08-25T23:03:59;31.10;33.50
23713;DHT22;12035;49.978;8.298;2022-08-25T23:08:57;31.00;32.90
23713;DHT22;12035;49.978;8.298;2022-08-25T23:13:56;30.90;33.10
23713;DHT22;12035;49.978;8.298;2022-08-25T23:18:54;30.90;33.10
23713;DHT22;12035;49.978;8.298;2022-08-25T23:23:52;30.80;33.10
23713;DHT22;12035;49.978;8.298;2022-08-25T23:28:50;30.80;33.20
23713;DHT22;12035;49.978;8.298;2022-08-25T23:33:48;30.70;33.30
23713;DHT22;12035;49.978;8.298;2022-08-25T23:38:46;30.70;33.50
23713;DHT22;12035;49.978;8.298;2022-08-25T23:43:44;30.60;33.50
23713;DHT22;12035;49.978;8.298;2022-08-25T23:48:43;30.50;33.70
23713;DHT22;12035;49.978;8.298;2022-08-25T23:53:41;30.50;33.70
23713;DHT22;12035;49.978;8.298;2022-08-25T23:58:38;30.40;33.70
